Time;durP1;ratioP1;P1;durP2;ratioP2;P2;SDS_P1;SDS_P2;PMS_P1;PMS_P2;Temp;Humidity;BMP_temperature;BMP_pressure;BME280_temperature;BME280_humidity;BME280_pressure;Samples;Min_cycle;Max_cycle;Signal;HPM_P1;HPM_P2
2024/01/19 00:01:48;;;;;;;14.00;6.15;;;;;;;10.73;69.70;98039.19;4944774;29;20150;-96
2024/01/19 00:04:14;;;;;;;12.43;6.25;;;;;;;10.81;70.02;98059.19;4929189;29;20094;-96
2024/01/19 00:06:39;;;;;;;14.13;6.63;;;;;;;10.75;69.99;98055.00;4929234;29;20055;-96
2024/01/19 00:09:05;;;;;;;16.27;9.52;;;;;;;10.60;70.12;98042.66;4929018;29;20474;-96
2024/01/19 00:11:31;;;;;;;12.85;7.22;;;;;;;10.56;70.08;98047.06;4945351;29;20036;-96
2024/01/19 00:13:57;;;;;;;9.23;5.45;;;;;;;10.58;70.49;98064.50;4943483;29;20035;-96
2024/01/19 00:16:22;;;;;;;12.98;5.85;;;;;;;10.48;70.83;98051.28;4928184;29;20413;-96
2024/01/19 00:18:48;;;;;;;11.13;5.60;;;;;;;10.50;70.62;98076.00;4943761;29;20070;-96
2024/01/19 00:21:14;;;;;;;10.20;5.85;;;;;;;10.44;70.48;98064.53;4944588;29;20047;-96
2024/01/19 00:23:39;;;;;;;10.23;5.32;;;;;;;10.43;70.67;98064.81;4943632;29;20015;-96
2024/01/19 00:26:06;;;;;;;11.48;5.63;;;;;;;10.44;70.91;98066.41;4927568;29;20118;-96
2024/01/19 00:28:31;;;;;;;10.48;6.03;;;;;;;10.35;70.80;98049.38;4928883;29;20031;-96
2024/01/19 00:30:57;;;;;;;9.80;5.65;;;;;;;10.48;70.64;98081.66;4929254;29;20038;-95
2024/01/19 00:33:23;;;;;;;12.68;5.82;;;;;;;10.41;70.56;98064.31;4928146;29;20097;-96
2024/01/19 00:35:49;;;;;;;19.92;8.55;;;;;;;10.43;70.39;98089.03;4929591;29;20108;-95
2024/01/19 00:38:14;;;;;;;14.68;8.00;;;;;;;10.33;70.44;98084.63;4930142;29;20066;-96
2024/01/19 00:40:40;;;;;;;15.93;7.95;;;;;;;10.27;70.66;98077.72;4947091;29;20090;-96
2024/01/19 00:43:06;;;;;;;17.02;8.57;;;;;;;10.21;70.36;98081.59;4945233;29;20023;-95
2024/01/19 00:45:31;;;;;;;13.50;8.43;;;;;;;10.14;70.87;98081.22;4927127;29;20066;-96
2024/01/19 00:47:57;;;;;;;13.15;8.00;;;;;;;10.07;71.20;98079.72;4945838;29;20031;-94
2024/01/19 00:50:22;;;;;;;13.07;7.43;;;;;;;10.14;71.35;98098.13;4929301;29;20024;-96
2024/01/19 00:52:48;;;;;;;15.52;8.00;;;;;;;10.08;71.16;98096.63;4944569;29;20095;-96
2024/01/19 00:55:14;;;;;;;16.00;7.85;;;;;;;10.06;71.25;98099.63;4929191;29;20437;-95
2024/01/19 00:57:39;;;;;;;11.07;6.85;;;;;;;10.00;71.75;98094.63;4927204;29;20063;-95
2024/01/19 01:00:05;;;;;;;16.70;8.05;;;;;;;9.90;71.74;98088.34;4926583;29;20066;-96
2024/01/19 01:02:31;;;;;;;15.02;7.95;;;;;;;9.89;72.06;98094.00;4926019;29;20051;-95
2024/01/19 01:04:56;;;;;;;11.93;6.60;;;;;;;9.78;71.99;98076.47;4942843;29;20027;-95
2024/01/19 01:07:22;;;;;;;13.95;7.25;;;;;;;9.89;72.11;98105.56;4926793;29;20034;-95
2024/01/19 01:09:48;;;;;;;11.98;6.82;;;;;;;9.78;71.79;98096.09;4926736;29;20035;-96
2024/01/19 01:12:14;;;;;;;13.77;7.57;;;;;;;9.67;72.40;98100.00;4927069;29;20071;-96
2024/01/19 01:14:39;;;;;;;28.50;15.10;;;;;;;9.60;72.75;98089.66;4928460;29;20027;-95
2024/01/19 01:17:05;;;;;;;23.90;12.00;;;;;;;9.69;72.75;98105.91;4912993;29;20082;-95
2024/01/19 01:19:32;;;;;;;27.52;12.90;;;;;;;9.71;72.72;98103.72;4928850;29;20023;-95
2024/01/19 01:21:57;;;;;;;29.73;14.07;;;;;;;9.76;72.79;98103.66;4913132;29;20035;-95
2024/01/19 01:24:23;;;;;;;27.77;13.60;;;;;;;9.73;72.19;98087.31;4928853;29;20456;-95
2024/01/19 01:26:48;;;;;;;19.13;9.95;;;;;;;9.83;72.46;98104.03;4929833;29;20394;-95
2024/01/19 01:29:14;;;;;;;14.25;9.25;;;;;;;9.76;72.38;98100.16;4927305;29;20030;-96
2024/01/19 01:31:40;;;;;;;16.27;8.90;;;;;;;9.71;72.25;98096.47;4929585;29;20047;-96
2024/01/19 01:34:05;;;;;;;8.50;5.05;;;;;;;9.68;72.18;98088.19;4944937;29;20082;-96
2024/01/19 01:36:31;;;;;;;8.95;4.95;;;;;;;9.71;72.28;98092.97;4945013;29;20105;-96
2024/01/19 01:38:56;;;;;;;8.45;5.20;;;;;;;9.66;72.17;98088.47;4930482;29;20110;-96
2024/01/19 01:41:22;;;;;;;9.57;5.38;;;;;;;9.65;72.36;98094.97;4928315;29;20063;-96
2024/01/19 01:43:48;;;;;;;9.48;4.53;;;;;;;9.61;72.52;98087.78;4929360;29;20027;-96
2024/01/19 01:46:13;;;;;;;9.50;5.55;;;;;;;9.61;72.49;98098.53;4943148;29;20111;-96
2024/01/19 01:48:39;;;;;;;9.02;4.95;;;;;;;9.59;72.65;98085.38;4926876;29;20023;-95
2024/01/19 01:51:04;;;;;;;6.95;4.57;;;;;;;9.57;72.81;98095.63;4927370;29;20038;-95
2024/01/19 01:53:30;;;;;;;10.02;4.88;;;;;;;9.62;72.32;98105.47;4926281;29;20058;-96
2024/01/19 01:55:56;;;;;;;7.95;4.82;;;;;;;9.66;72.55;98117.25;4942591;29;20055;-95
2024/01/19 01:58:21;;;;;;;9.00;5.55;;;;;;;9.55;72.61;98102.38;4942016;29;20027;-96
2024/01/19 02:00:47;;;;;;;9.77;5.40;;;;;;;9.47;72.71;98110.00;4943721;29;20023;-96
2024/01/19 02:03:13;;;;;;;10.65;5.32;;;;;;;9.41;73.22;98100.44;4944156;29;20082;-95
2024/01/19 02:05:39;;;;;;;13.27;6.05;;;;;;;9.53;72.85;98123.38;4928425;29;20038;-96
2024/01/19 02:08:04;;;;;;;10.18;5.97;;;;;;;9.34;72.93;98094.63;4927978;29;20034;-95
2024/01/19 02:10:30;;;;;;;12.05;6.25;;;;;;;9.37;72.52;98104.78;4943247;29;20023;-95
2024/01/19 02:12:56;;;;;;;12.02;6.60;;;;;;;9.24;72.77;98100.16;4926207;29;20031;-96
2024/01/19 02:15:29;;;;;;;13.52;7.45;;;;;;;9.23;73.27;98111.97;4942643;29;20027;-95
2024/01/19 02:17:55;;;;;;;17.63;7.30;;;;;;;9.29;73.16;98124.25;4929966;29;20071;-96
2024/01/19 02:20:24;;;;;;;16.02;8.90;;;;;;;9.17;73.51;98110.44;4929606;29;20042;-95
2024/01/19 02:22:49;;;;;;;14.05;7.70;;;;;;;9.12;73.91;98107.84;4930026;29;20118;-96
2024/01/19 02:25:15;;;;;;;17.65;9.98;;;;;;;9.14;74.04;98117.19;4930582;29;20077;-95
2024/01/19 02:27:40;;;;;;;15.82;10.35;;;;;;;9.24;73.92;98127.00;4929355;29;20038;-94
2024/01/19 02:30:10;;;;;;;17.35;8.00;;;;;;;9.09;74.13;98115.41;4913516;29;20031;-96
2024/01/19 02:32:35;;;;;;;12.35;7.25;;;;;;;9.05;73.72;98114.38;4945520;29;20027;-95
2024/01/19 02:35:01;;;;;;;11.07;7.22;;;;;;;9.08;73.75;98127.22;4929540;29;20027;-96
2024/01/19 02:37:27;;;;;;;12.85;7.72;;;;;;;9.07;74.00;98130.19;4930560;29;20043;-95
2024/01/19 02:39:52;;;;;;;13.30;8.95;;;;;;;9.03;74.65;98124.59;4929276;29;20126;-95
2024/01/19 02:42:18;;;;;;;10.82;7.28;;;;;;;9.12;74.60;98137.38;4946448;29;20541;-96
2024/01/19 02:44:44;;;;;;;11.95;7.25;;;;;;;9.04;74.13;98123.50;4930800;29;20027;-96
2024/01/19 02:47:09;;;;;;;13.15;7.22;;;;;;;9.15;74.47;98142.16;4946729;29;20534;-95
2024/01/19 02:49:35;;;;;;;19.90;8.82;;;;;;;9.05;74.41;98129.69;4930032;29;20078;-96
2024/01/19 02:52:01;;;;;;;14.75;9.25;;;;;;;9.01;74.41;98131.34;4945459;29;20472;-95
2024/01/19 02:54:27;;;;;;;18.45;9.20;;;;;;;9.08;73.81;98148.69;4945755;29;20561;-95
2024/01/19 02:56:52;;;;;;;14.27;8.80;;;;;;;8.89;73.71;98121.81;4930171;29;20031;-95
2024/01/19 02:59:18;;;;;;;13.40;8.60;;;;;;;8.88;73.95;98132.84;4928153;29;20106;-95
2024/01/19 03:01:43;;;;;;;12.70;8.73;;;;;;;8.93;74.32;98140.06;4945547;29;20142;-96
2024/01/19 03:04:09;;;;;;;14.43;9.80;;;;;;;8.94;74.62;98147.78;4944519;29;20027;-96
2024/01/19 03:06:35;;;;;;;19.83;11.98;;;;;;;8.95;74.43;98152.09;4929011;29;20038;-95
2024/01/19 03:09:00;;;;;;;16.15;9.80;;;;;;;8.91;74.80;98156.44;4913493;29;20033;-96
2024/01/19 03:11:26;;;;;;;13.80;9.98;;;;;;;8.86;74.51;98145.75;4929083;29;20066;-96
2024/01/19 03:13:53;;;;;;;21.38;9.80;;;;;;;8.81;74.08;98143.94;4944943;29;20039;-95
2024/01/19 03:16:18;;;;;;;18.40;11.15;;;;;;;8.80;74.19;98145.03;4944682;29;20027;-95
2024/01/19 03:18:44;;;;;;;18.92;10.25;;;;;;;8.68;74.13;98129.31;4927678;29;20031;-95
2024/01/19 03:21:11;;;;;;;21.55;11.20;;;;;;;8.75;74.14;98147.75;4913649;29;20035;-96
2024/01/19 03:23:36;;;;;;;15.25;10.45;;;;;;;8.64;73.41;98140.94;4912867;29;20038;-95
2024/01/19 03:26:02;;;;;;;15.50;9.98;;;;;;;8.64;73.70;98143.59;4912515;29;20031;-95
2024/01/19 03:28:28;;;;;;;13.05;9.48;;;;;;;8.72;74.13;98169.81;4943214;29;20034;-95
2024/01/19 03:30:53;;;;;;;13.75;10.02;;;;;;;8.51;74.33;98153.16;4927690;29;20154;-95
2024/01/19 03:33:19;;;;;;;17.15;10.25;;;;;;;8.53;74.49;98164.38;4912822;29;20102;-95
2024/01/19 03:35:45;;;;;;;16.23;9.98;;;;;;;8.48;75.29;98173.28;4929128;29;20034;-94
2024/01/19 03:38:11;;;;;;;19.13;12.60;;;;;;;8.35;75.57;98163.19;4930174;29;20121;-95
2024/01/19 03:40:36;;;;;;;17.83;10.27;;;;;;;8.37;75.52;98160.22;4931335;29;20034;-96
2024/01/19 03:43:02;;;;;;;17.98;10.50;;;;;;;8.37;75.44;98161.03;4930212;29;20071;-96
2024/01/19 03:45:28;;;;;;;15.75;9.50;;;;;;;8.38;75.34;98161.81;4930844;29;20024;-96
2024/01/19 03:47:54;;;;;;;12.45;8.85;;;;;;;8.30;75.32;98157.91;4932238;29;20023;-95
2024/01/19 03:50:19;;;;;;;16.52;8.98;;;;;;;8.27;75.47;98159.22;4946171;29;20121;-95
2024/01/19 03:52:45;;;;;;;13.50;8.77;;;;;;;8.35;75.37;98168.56;4931486;29;20039;-96
2024/01/19 03:55:11;;;;;;;15.57;8.77;;;;;;;8.37;74.83;98174.44;4927334;29;20043;-95
2024/01/19 03:57:36;;;;;;;13.75;8.52;;;;;;;8.36;75.05;98175.50;4946096;29;20046;-95
2024/01/19 04:00:05;;;;;;;17.67;8.45;;;;;;;8.35;75.52;98181.16;4930210;29;20481;-95
2024/01/19 04:02:31;;;;;;;16.35;9.13;;;;;;;8.38;75.57;98199.38;4929734;29;20110;-96
2024/01/19 04:04:56;;;;;;;15.25;9.20;;;;;;;8.27;75.80;98190.63;4930392;29;20109;-96
2024/01/19 04:07:22;;;;;;;11.82;8.27;;;;;;;8.34;75.30;98211.75;4930830;29;20027;-95
2024/01/19 04:09:48;;;;;;;13.23;7.88;;;;;;;8.17;75.13;98196.06;4929880;29;20034;-96
2024/01/19 04:12:15;;;;;;;15.70;8.93;;;;;;;8.33;75.71;98219.00;4930956;29;20031;-95
2024/01/19 04:14:41;;;;;;;12.68;8.57;;;;;;;8.13;75.39;98198.50;4927631;29;20032;-96
2024/01/19 04:17:07;;;;;;;12.02;7.13;;;;;;;7.97;75.56;98197.84;4929060;29;20413;-95
2024/01/19 04:19:33;;;;;;;9.32;6.97;;;;;;;7.96;75.96;98193.56;4930690;29;20031;-95
2024/01/19 04:21:59;;;;;;;13.18;6.72;;;;;;;7.90;75.71;98198.16;4945064;29;20019;-95
2024/01/19 04:24:25;;;;;;;11.20;7.20;;;;;;;7.95;75.79;98216.09;4929567;29;20035;-95
2024/01/19 04:26:50;;;;;;;13.93;7.22;;;;;;;7.97;75.56;98221.97;4928947;29;20027;-95
2024/01/19 04:29:16;;;;;;;10.02;6.43;;;;;;;7.90;75.48;98206.19;4931143;29;20031;-96
2024/01/19 04:31:41;;;;;;;12.18;7.45;;;;;;;7.86;75.46;98207.03;4931048;29;20104;-96
2024/01/19 04:34:07;;;;;;;14.98;7.72;;;;;;;7.87;75.77;98206.75;4928025;29;20541;-95
2024/01/19 04:36:33;;;;;;;12.02;7.20;;;;;;;7.94;75.34;98233.25;4925091;29;20035;-91
2024/01/19 04:38:58;;;;;;;10.05;7.30;;;;;;;7.93;75.26;98230.84;4944903;28;20039;-95
2024/01/19 04:41:24;;;;;;;11.23;7.75;;;;;;;7.88;76.24;98220.97;4945458;29;20015;-94
2024/01/19 04:43:49;;;;;;;13.18;8.73;;;;;;;7.80;76.19;98217.00;4922682;29;20051;-90
2024/01/19 04:46:15;;;;;;;15.65;7.65;;;;;;;7.86;76.43;98215.06;4928305;29;20040;-90
2024/01/19 04:48:40;;;;;;;11.48;7.35;;;;;;;7.93;76.77;98225.47;4924700;29;20503;-90
2024/01/19 04:51:06;;;;;;;12.43;8.10;;;;;;;7.96;76.39;98241.00;4926347;29;20042;-90
2024/01/19 04:53:32;;;;;;;13.63;8.20;;;;;;;7.89;76.61;98227.94;4909356;29;20028;-90
2024/01/19 04:55:58;;;;;;;10.60;7.03;;;;;;;7.78;76.36;98231.75;4936911;29;20028;-94
2024/01/19 04:58:23;;;;;;;10.05;7.47;;;;;;;7.83;75.76;98237.88;4949112;29;20039;-91
2024/01/19 05:00:49;;;;;;;10.55;7.53;;;;;;;8.06;75.67;98260.50;4931511;29;20038;-90
2024/01/19 05:03:18;;;;;;;14.32;8.52;;;;;;;8.06;76.07;98263.19;4928557;29;20476;-91
2024/01/19 05:05:43;;;;;;;14.93;8.60;;;;;;;7.96;75.82;98246.38;4919229;29;20031;-90
2024/01/19 05:08:11;;;;;;;17.70;9.13;;;;;;;8.01;76.11;98246.31;4929838;29;20038;-90
2024/01/19 05:10:36;;;;;;;14.90;9.05;;;;;;;8.04;75.92;98240.41;4916622;29;20062;-91
2024/01/19 05:13:03;;;;;;;11.70;8.75;;;;;;;8.09;75.58;98246.56;4928208;29;20027;-91
2024/01/19 05:15:28;;;;;;;22.95;14.82;;;;;;;8.03;75.98;98244.16;4947384;29;20034;-91
2024/01/19 05:17:54;;;;;;;18.05;10.00;;;;;;;7.99;75.72;98238.59;4914201;29;20031;-91
2024/01/19 05:20:19;;;;;;;14.55;9.43;;;;;;;7.96;75.38;98254.41;4926702;29;20031;-92
2024/01/19 05:22:48;;;;;;;12.98;8.85;;;;;;;8.05;75.04;98250.88;4926352;29;20504;-96
2024/01/19 05:25:18;;;;;;;13.02;9.13;;;;;;;8.10;74.77;98266.91;4950022;29;20027;-91
2024/01/19 05:27:53;;;;;;;17.00;9.98;;;;;;;8.04;74.52;98259.19;4923378;29;20117;-91
2024/01/19 05:30:22;;;;;;;14.82;11.00;;;;;;;8.06;74.81;98262.38;4922365;29;20478;-96
2024/01/19 05:32:52;;;;;;;19.92;12.40;;;;;;;8.10;74.85;98279.50;4911903;29;20043;-96
2024/01/19 05:35:18;;;;;;;26.55;20.20;;;;;;;8.09;74.58;98273.34;4928169;29;20055;-96
2024/01/19 05:37:44;;;;;;;21.02;14.57;;;;;;;8.09;74.63;98278.72;4911501;29;20055;-96
2024/01/19 05:40:10;;;;;;;25.88;13.80;;;;;;;8.02;75.04;98266.69;4930417;29;20528;-96
2024/01/19 05:42:37;;;;;;;20.15;13.07;;;;;;;8.21;74.68;98289.06;4926501;29;20031;-91
2024/01/19 05:45:03;;;;;;;19.42;14.70;;;;;;;8.03;74.55;98263.75;4936792;29;20536;-95
2024/01/19 05:47:29;;;;;;;27.30;16.65;;;;;;;8.07;74.44;98267.47;4927618;29;20047;-95
2024/01/19 05:49:55;;;;;;;22.17;13.73;;;;;;;8.21;74.44;98285.59;4912921;29;20031;-95
2024/01/19 05:52:21;;;;;;;29.00;13.63;;;;;;;8.14;74.53;98264.47;4909997;29;20157;-90
2024/01/19 05:54:59;;;;;;;;;;;;;;;;;;;;;
2024/01/19 05:57:28;;;;;;;19.00;11.30;;;;;;;8.25;74.66;98275.91;4920145;29;20566;-93
2024/01/19 05:59:53;;;;;;;18.98;11.90;;;;;;;8.38;74.00;98288.66;4919544;29;20525;-95
2024/01/19 06:02:20;;;;;;;19.45;11.98;;;;;;;8.45;73.82;98291.09;4918665;29;20044;-94
2024/01/19 06:04:47;;;;;;;24.00;11.85;;;;;;;8.33;74.01;98274.53;4901177;29;20032;-93
2024/01/19 06:07:13;;;;;;;27.63;15.95;;;;;;;8.45;73.81;98281.16;4905491;29;20023;-95
2024/01/19 06:13:11;;;;;;;20.00;12.23;;;;;;;8.44;73.34;98270.69;4880020;29;20059;-92
2024/01/19 06:15:37;;;;;;;24.50;15.35;;;;;;;8.50;73.42;98289.13;4924963;29;20021;-96
2024/01/19 06:18:09;;;;;;;20.40;14.05;;;;;;;8.49;73.23;98284.06;4920075;29;20036;-95
2024/01/19 06:20:41;;;;;;;19.42;13.32;;;;;;;8.53;73.28;98285.13;4924959;29;20032;-96
2024/01/19 06:23:17;;;;;;;23.58;13.73;;;;;;;8.54;73.00;98289.38;4911737;29;20044;-96
2024/01/19 06:25:44;;;;;;;19.27;12.45;;;;;;;8.61;72.80;98291.72;4910808;29;20036;-95
2024/01/19 06:28:10;;;;;;;23.23;11.88;;;;;;;8.60;72.76;98307.03;4908820;29;20400;-94
2024/01/19 06:30:36;;;;;;;18.95;11.40;;;;;;;8.52;72.54;98317.59;4912346;29;20023;-95
2024/01/19 06:33:05;;;;;;;18.50;12.88;;;;;;;8.39;72.74;98310.94;4910263;29;20043;-96
2024/01/19 06:35:33;;;;;;;18.98;12.55;;;;;;;8.52;72.54;98312.22;4926094;29;20547;-95
2024/01/19 06:38:05;;;;;;;22.17;12.77;;;;;;;8.46;72.42;98306.09;4895747;29;20047;-94
2024/01/19 06:40:31;;;;;;;;;;;;;;;8.62;72.62;98345.13;4893617;29;20037;-94
2024/01/19 06:42:59;;;;;;;23.77;14.23;;;;;;;8.42;72.37;98335.34;4934756;29;19938;-94
2024/01/19 06:45:25;;;;;;;25.70;14.80;;;;;;;8.47;72.17;98331.84;4913326;29;20043;-95
2024/01/19 06:47:51;;;;;;;21.25;15.35;;;;;;;8.59;71.37;98343.03;4913476;29;20063;-95
2024/01/19 06:50:16;;;;;;;25.23;14.88;;;;;;;8.68;71.94;98359.31;4915088;29;20028;-96
2024/01/19 06:55:27;;;;;;;;;;;;;;;;;;;;;
2024/01/19 06:58:10;;;;;;;29.88;19.58;;;;;;;8.76;71.80;98342.59;4946936;28;20042;-95
2024/01/19 07:00:47;;;;;;;28.38;18.02;;;;;;;8.68;72.14;98357.41;4946956;29;20015;-96
2024/01/19 07:03:15;;;;;;;27.33;18.55;;;;;;;8.75;71.99;98357.09;5272719;23;20047;-95
2024/01/19 07:05:42;;;;;;;23.20;14.98;;;;;;;8.87;71.57;98367.47;4938811;29;20095;-95
2024/01/19 07:08:12;;;;;;;25.42;15.00;;;;;;;9.00;70.99;98376.75;4935734;29;20027;-95
2024/01/19 07:10:46;;;;;;;27.83;17.00;;;;;;;8.95;71.01;98369.53;4957015;28;20048;-96
2024/01/19 07:13:11;;;;;;;24.88;16.70;;;;;;;8.93;70.62;98365.56;4954994;29;20038;-95
2024/01/19 07:15:37;;;;;;;24.08;16.05;;;;;;;8.87;70.87;98370.94;4933876;29;20023;-96
2024/01/19 07:18:03;;;;;;;25.35;18.40;;;;;;;8.86;70.43;98368.53;4935550;29;20420;-96
2024/01/19 07:25:59;;;;;;;26.67;16.48;;;;;;;9.14;69.87;98361.56;5746787;23;20238;-96
2024/01/19 07:32:08;;;;;;;32.15;18.65;;;;;;;9.45;70.78;98398.88;4916280;29;20269;-95
2024/01/19 07:34:38;;;;;;;36.72;22.25;;;;;;;9.33;70.94;98372.41;4880826;29;20120;-96
2024/01/19 07:37:10;;;;;;;34.38;21.75;;;;;;;9.58;70.76;98390.13;4880007;29;20036;-96
2024/01/19 07:42:25;;;;;;;62.13;35.30;;;;;;;9.90;69.67;98384.09;5364888;23;20078;-96
2024/01/19 07:53:17;;;;;;;41.17;27.80;;;;;;;10.44;69.13;98365.13;5539991;23;20043;-96
2024/01/19 07:55:43;;;;;;;40.20;26.90;;;;;;;10.60;68.81;98379.13;4917480;29;20128;-95
2024/01/19 07:58:11;;;;;;;45.35;25.77;;;;;;;10.72;68.99;98374.09;4915196;29;20054;-95
2024/01/19 08:06:10;;;;;;;;;;;;;;;;;;;;;
2024/01/19 08:28:50;;;;;;;50.30;30.60;;;;;;;11.55;65.14;98385.03;5786434;23;20316;-95
2024/01/19 08:31:29;;;;;;;48.88;28.42;;;;;;;11.63;64.99;98384.34;4909837;29;20024;-95
2024/01/19 08:34:08;;;;;;;48.08;26.15;;;;;;;11.83;64.76;98391.25;4929646;29;20090;-96
2024/01/19 08:37:09;;;;;;;33.92;21.70;;;;;;;11.94;63.92;98394.53;4933805;29;20019;-94
2024/01/19 09:06:23;;;;;;;22.90;10.98;;;;;;;13.11;59.32;98385.66;5216680;23;20059;-96
2024/01/19 09:08:51;;;;;;;20.38;6.80;;;;;;;13.28;57.31;98384.13;4917251;29;20055;-96
2024/01/19 09:14:51;;;;;;;16.10;7.43;;;;;;;13.65;56.74;98412.66;4923092;29;20221;-95
2024/01/19 09:17:23;;;;;;;14.77;9.70;;;;;;;13.61;56.55;98381.91;4901441;29;20033;-94
2024/01/19 09:19:49;;;;;;;13.80;8.35;;;;;;;13.79;56.63;98392.81;4899209;29;20072;-96
2024/01/19 09:22:16;;;;;;;12.73;7.85;;;;;;;13.87;56.43;98386.63;4902059;29;20041;-96
2024/01/19 09:24:43;;;;;;;18.05;9.38;;;;;;;14.01;56.35;98391.91;4905972;29;20044;-94
2024/01/19 09:27:14;;;;;;;16.10;9.73;;;;;;;14.15;56.60;98392.56;4875463;29;20483;-96
2024/01/19 09:29:50;;;;;;;;;;;;;;;;;;;;;
2024/01/19 09:32:45;;;;;;;21.27;10.02;;;;;;;14.41;55.74;98399.94;5458123;23;20054;-95
2024/01/19 09:35:26;;;;;;;27.73;10.80;;;;;;;14.35;55.49;98380.34;4947938;29;20036;-93
2024/01/19 09:46:13;;;;;;;;;;;;;;;;;;;;;
2024/01/19 09:49:11;;;;;;;20.20;10.02;;;;;;;14.87;54.14;98390.41;5108128;23;20190;-96
2024/01/19 09:52:13;;;;;;;20.90;11.50;;;;;;;14.93;54.39;98387.19;4955722;28;20069;-95
2024/01/19 09:55:11;;;;;;;15.07;9.00;;;;;;;14.97;53.65;98390.06;4943806;29;20118;-96
2024/01/19 09:57:59;;;;;;;21.45;13.68;;;;;;;15.11;52.88;98389.88;4950510;29;20023;-92
2024/01/19 10:00:27;;;;;;;21.92;10.48;;;;;;;15.15;52.84;98380.00;4948962;29;20057;-94
2024/01/19 10:02:56;;;;;;;18.48;9.30;;;;;;;15.14;53.12;98370.25;4918503;29;20031;-96
2024/01/19 10:05:24;;;;;;;16.90;8.05;;;;;;;15.18;53.05;98357.66;4917036;29;20027;-95
2024/01/19 10:11:20;;;;;;;15.85;6.70;;;;;;;15.31;52.62;98353.91;4951954;29;20050;-94
2024/01/19 10:13:47;;;;;;;26.52;8.65;;;;;;;15.43;51.81;98360.59;4930481;28;20032;-91
2024/01/19 10:16:15;;;;;;;5.88;2.80;;;;;;;15.69;49.89;98374.84;4902753;29;20040;-92
2024/01/19 10:19:20;;;;;;;11.68;4.20;;;;;;;15.89;49.27;98373.31;4908220;29;20035;-96
2024/01/19 10:29:44;;;;;;;3.90;2.03;;;;;;;16.34;46.88;98345.53;4949057;28;20521;-95
2024/01/19 10:32:21;;;;;;;5.53;1.52;;;;;;;16.46;46.12;98341.31;4908157;29;20490;-95
2024/01/19 10:34:52;;;;;;;5.53;2.13;;;;;;;16.62;46.14;98346.91;4901386;29;20470;-94
2024/01/19 10:37:21;;;;;;;5.85;2.83;;;;;;;16.67;46.30;98338.56;4917374;29;20024;-92
2024/01/19 10:39:47;;;;;;;11.43;3.40;;;;;;;16.86;45.84;98355.19;4894295;29;20032;-92
2024/01/19 10:42:15;;;;;;;4.93;2.58;;;;;;;16.92;44.93;98337.53;4907736;29;20035;-96
2024/01/19 10:44:41;;;;;;;9.35;6.88;;;;;;;16.88;44.63;98314.06;4904196;29;20028;-91
2024/01/19 10:47:07;;;;;;;25.40;13.18;;;;;;;16.92;45.65;98320.44;4890363;29;20059;-91
2024/01/19 10:49:34;;;;;;;12.02;4.03;;;;;;;17.05;45.53;98329.41;4897099;29;20037;-93
2024/01/19 10:52:03;;;;;;;7.78;2.75;;;;;;;17.00;45.85;98310.59;4891611;29;20405;-92
2024/01/19 10:54:40;;;;;;;4.85;2.30;;;;;;;17.19;44.39;98327.16;4890630;29;20397;-92
2024/01/19 10:57:08;;;;;;;9.05;2.30;;;;;;;17.27;44.73;98323.56;4898529;29;20098;-93
2024/01/19 10:59:38;;;;;;;20.63;3.53;;;;;;;17.20;45.13;98315.13;4900478;29;20474;-93
2024/01/19 11:02:04;;;;;;;18.13;3.65;;;;;;;17.28;45.14;98314.25;4897696;29;20124;-93
2024/01/19 11:04:33;;;;;;;24.60;4.03;;;;;;;17.29;45.20;98296.81;4912268;29;20114;-92
2024/01/19 11:06:58;;;;;;;15.88;2.83;;;;;;;17.38;45.51;98305.63;4907443;29;20038;-93
2024/01/19 11:09:24;;;;;;;7.88;1.98;;;;;;;17.50;43.73;98318.47;4909553;29;20039;-95
2024/01/19 11:11:54;;;;;;;10.88;2.13;;;;;;;17.54;43.83;98321.31;4908110;29;20035;-95
2024/01/19 11:14:26;;;;;;;13.30;2.92;;;;;;;17.45;43.93;98302.38;4903109;29;20481;-92
2024/01/19 11:16:55;;;;;;;15.65;2.25;;;;;;;17.48;43.72;98300.88;4903327;29;20462;-93
2024/01/19 11:19:22;;;;;;;26.40;4.38;;;;;;;17.53;44.19;98315.03;4909165;29;20134;-93
2024/01/19 11:21:51;;;;;;;22.70;4.22;;;;;;;17.57;43.99;98310.50;4924254;29;20459;-94
2024/01/19 11:24:18;;;;;;;6.50;1.92;;;;;;;17.56;42.78;98314.38;4909563;29;20083;-90
2024/01/19 11:26:49;;;;;;;17.10;3.70;;;;;;;17.57;42.93;98312.44;4907673;29;20059;-92
2024/01/19 11:29:19;;;;;;;13.07;3.90;;;;;;;17.57;43.21;98310.50;4879876;29;20391;-91
2024/01/19 11:31:44;;;;;;;8.10;2.25;;;;;;;17.60;42.84;98317.22;4918825;29;20083;-93
2024/01/19 11:34:44;;;;;;;12.30;2.38;;;;;;;17.59;42.50;98310.19;4886258;29;20526;-96
2024/01/19 11:37:45;;;;;;;4.95;1.25;;;;;;;17.77;41.90;98325.13;4892232;29;20517;-94
2024/01/19 11:43:48;;;;;;;7.75;2.75;;;;;;;17.79;42.15;98313.91;4847284;29;20467;-94
2024/01/19 11:46:48;;;;;;;13.85;4.05;;;;;;;17.84;42.34;98324.59;4857892;29;20047;-94
2024/01/19 11:56:48;;;;;;;7.47;1.50;;;;;;;18.01;41.08;98309.13;4874054;29;20050;-96
2024/01/19 11:59:27;;;;;;;14.05;3.05;;;;;;;18.16;40.43;98303.75;4921682;29;20047;-96
2024/01/19 12:02:43;;;;;;;8.30;1.70;;;;;;;18.52;40.44;98326.56;4896636;29;20052;-95
2024/01/19 12:05:31;;;;;;;6.05;1.25;;;;;;;18.68;39.79;98313.00;4913977;29;20028;-96
2024/01/19 12:08:04;;;;;;;12.57;2.80;;;;;;;18.74;40.50;98308.09;4918303;29;20060;-96
2024/01/19 12:10:29;;;;;;;7.85;2.30;;;;;;;18.65;40.30;98291.88;4896588;29;20064;-96
2024/01/19 12:13:04;;;;;;;9.85;1.75;;;;;;;18.78;40.41;98314.44;4892782;29;20036;-91
2024/01/19 12:15:30;;;;;;;10.00;2.53;;;;;;;18.61;40.77;98280.06;4902822;29;20027;-92
2024/01/19 12:31:09;;;;;;;6.32;2.40;;;;;;;18.49;41.11;98310.94;5785324;23;20362;-90
2024/01/19 12:33:35;;;;;;;3.60;1.70;;;;;;;18.40;40.34;98314.94;4909607;29;20514;-90
2024/01/19 12:36:13;;;;;;;5.68;1.65;;;;;;;18.33;40.74;98321.75;4914955;29;20271;-92
2024/01/19 12:39:11;;;;;;;4.70;1.42;;;;;;;18.36;41.13;98337.44;4909804;29;20032;-91
2024/01/19 12:41:41;;;;;;;3.42;1.73;;;;;;;18.24;41.70;98310.22;4931835;29;20457;-92
2024/01/19 12:44:07;;;;;;;14.38;4.05;;;;;;;18.47;41.84;98335.00;4914568;29;20035;-93
2024/01/19 12:46:34;;;;;;;5.00;1.70;;;;;;;18.32;42.08;98317.47;4914508;29;20023;-93
2024/01/19 12:49:05;;;;;;;4.85;1.58;;;;;;;18.32;41.71;98316.66;4934256;29;20043;-93
2024/01/19 12:51:34;;;;;;;11.88;2.38;;;;;;;18.37;42.33;98310.97;4923164;29;20027;-94
2024/01/19 12:54:00;;;;;;;11.55;2.50;;;;;;;18.38;42.02;98335.13;4910267;29;20038;-92
2024/01/19 12:56:29;;;;;;;6.13;2.60;;;;;;;18.35;42.32;98335.84;4922284;29;20022;-95
2024/01/19 12:59:19;;;;;;;8.27;2.22;;;;;;;18.31;42.45;98345.84;4915629;29;20028;-92
2024/01/19 13:01:54;;;;;;;8.15;2.55;;;;;;;18.17;42.44;98334.53;4925002;29;20038;-91
2024/01/19 13:04:23;;;;;;;3.45;1.88;;;;;;;18.06;42.89;98338.88;4939462;29;20042;-93
2024/01/19 13:06:51;;;;;;;8.13;2.42;;;;;;;18.17;42.86;98345.41;4910798;29;20066;-93
2024/01/19 13:09:17;;;;;;;8.77;2.10;;;;;;;18.04;43.17;98330.25;4940766;29;20028;-93
2024/01/19 13:11:43;;;;;;;8.57;2.35;;;;;;;18.07;43.91;98351.34;4911512;29;20069;-92
2024/01/19 13:14:13;;;;;;;10.93;2.55;;;;;;;17.87;44.08;98350.38;4925671;29;20024;-95
2024/01/19 13:17:03;;;;;;;6.93;2.60;;;;;;;17.92;43.47;98361.00;4932816;29;20035;-93
2024/01/19 13:19:30;;;;;;;8.40;2.42;;;;;;;17.73;43.98;98356.91;4910980;29;20137;-94
2024/01/19 13:22:04;;;;;;;6.75;2.40;;;;;;;17.70;44.55;98373.13;4925130;29;20541;-93
2024/01/19 13:24:31;;;;;;;5.53;2.70;;;;;;;17.70;44.90;98382.09;4903384;29;20032;-94
2024/01/19 13:27:03;;;;;;;4.70;2.33;;;;;;;17.65;44.49;98378.81;4913432;29;20027;-92
2024/01/19 13:29:30;;;;;;;8.57;2.42;;;;;;;17.56;44.39;98370.75;4895938;29;20035;-92
2024/01/19 13:31:58;;;;;;;5.85;2.10;;;;;;;17.46;45.10;98363.03;4925854;29;20103;-92
2024/01/19 13:34:27;;;;;;;6.18;2.30;;;;;;;17.52;45.04;98386.97;4882099;29;20035;-93
2024/01/19 13:36:53;;;;;;;8.88;4.32;;;;;;;17.54;45.50;98383.91;4926595;29;20048;-94
2024/01/19 13:39:21;;;;;;;3.60;2.40;;;;;;;17.57;45.43;98396.81;4860767;29;20084;-96
2024/01/19 13:41:47;;;;;;;11.95;4.78;;;;;;;17.43;45.54;98369.13;4903885;29;20055;-93
2024/01/19 13:44:25;;;;;;;14.25;3.80;;;;;;;17.64;45.37;98409.88;4901946;29;20099;-93
2024/01/19 13:46:51;;;;;;;7.28;2.20;;;;;;;17.42;44.90;98381.94;4892685;29;20405;-92
2024/01/19 13:49:17;;;;;;;10.77;4.40;;;;;;;17.40;45.50;98378.00;4895574;29;20085;-94
2024/01/19 13:51:42;;;;;;;13.45;5.25;;;;;;;17.41;46.37;98388.53;4898861;29;20462;-91